Time;durP1;ratioP1;P1;durP2;ratioP2;P2;SDS_P1;SDS_P2;PMS_P1;PMS_P2;Temp;Humidity;BMP_temperature;BMP_pressure;BME280_temperature;BME280_humidity;BME280_pressure;Samples;Min_cycle;Max_cycle;Signal;HPM_P1;HPM_P2
2022/11/20 00:02:43;;;;;;;24.57;12.80;;;-4.00;1.00;;;;;;8375855;28;20188;-78
2022/11/20 00:06:44;;;;;;;25.57;13.07;;;-4.00;1.00;;;;;;8369491;28;20185;-79
2022/11/20 00:10:45;;;;;;;23.27;12.87;;;-4.00;1.00;;;;;;8366151;28;20289;-79
2022/11/20 00:14:45;;;;;;;23.97;12.40;;;-4.10;1.00;;;;;;8374146;28;20264;-79
2022/11/20 00:18:47;;;;;;;26.47;13.37;;;-4.10;1.00;;;;;;8370306;28;20188;-79
2022/11/20 00:22:47;;;;;;;23.20;12.73;;;-4.20;1.00;;;;;;8372368;28;20185;-79
2022/11/20 00:26:48;;;;;;;24.23;12.47;;;-4.30;1.00;;;;;;8368249;28;20205;-80
2022/11/20 00:30:49;;;;;;;22.13;11.63;;;-4.40;26.40;;;;;;8372736;28;20337;-80
2022/11/20 00:34:50;;;;;;;24.57;12.20;;;-4.50;73.00;;;;;;8371440;28;20312;-79
2022/11/20 00:38:52;;;;;;;25.50;13.20;;;-4.60;99.90;;;;;;8363632;28;20205;-80
2022/11/20 00:42:53;;;;;;;26.60;12.07;;;-4.60;99.90;;;;;;8366487;28;20231;-79
2022/11/20 00:46:54;;;;;;;25.10;12.27;;;-4.60;99.90;;;;;;8376039;28;20249;-80
2022/11/20 00:50:55;;;;;;;24.80;11.70;;;-4.70;99.90;;;;;;8371712;28;20227;-79
2022/11/20 00:54:56;;;;;;;20.43;11.20;;;-4.80;99.90;;;;;;8367072;28;20195;-80
2022/11/20 00:59:00;;;;;;;24.97;12.27;;;-4.80;1.00;;;;;;8370583;28;20279;-79
2022/11/20 01:03:01;;;;;;;26.03;13.20;;;-4.90;1.00;;;;;;8369871;28;20327;-79
2022/11/20 01:07:02;;;;;;;24.20;12.50;;;-5.00;1.00;;;;;;8369908;28;20207;-80
2022/11/20 01:11:06;;;;;;;23.97;12.80;;;-4.90;99.90;;;;;;8368142;28;20211;-79
2022/11/20 01:15:07;;;;;;;26.87;13.37;;;-4.90;99.90;;;;;;8368508;28;20181;-80
2022/11/20 01:19:12;;;;;;;28.17;13.27;;;-5.00;99.90;;;;;;8371273;28;20204;-80
2022/11/20 01:23:13;;;;;;;25.03;13.30;;;-4.90;99.90;;;;;;8362735;28;20196;-79
2022/11/20 01:27:14;;;;;;;24.57;13.77;;;-4.90;1.00;;;;;;8366967;28;20347;-79
2022/11/20 01:31:21;;;;;;;23.93;12.13;;;-4.90;1.00;;;;;;8363796;28;20612;-80
2022/11/20 01:35:22;;;;;;;23.20;12.23;;;-4.90;1.00;;;;;;8371094;28;20178;-80
2022/11/20 01:39:25;;;;;;;25.17;12.60;;;-4.90;1.00;;;;;;8370427;28;20246;-79
2022/11/20 01:43:28;;;;;;;25.83;12.43;;;-4.90;1.00;;;;;;8366321;28;20196;-79
2022/11/20 01:47:37;;;;;;;24.80;12.50;;;-4.90;99.90;;;;;;8363712;28;20200;-79
2022/11/20 01:52:03;;;;;;;22.13;12.03;;;-4.90;99.90;;;;;;8382477;28;20206;-78
2022/11/20 01:56:09;;;;;;;29.63;14.13;;;-4.90;54.70;;;;;;8364071;28;20238;-79
2022/11/20 02:00:13;;;;;;;23.70;12.37;;;-4.90;1.00;;;;;;8365142;28;20186;-78
2022/11/20 02:04:15;;;;;;;23.33;12.60;;;-5.00;46.70;;;;;;8371087;28;20566;-79
2022/11/20 02:08:17;;;;;;;23.20;11.67;;;-5.00;21.60;;;;;;8372296;28;20188;-79
2022/11/20 02:16:43;;;;;;;20.30;11.27;;;-5.10;91.10;;;;;;8371893;28;20196;-79
2022/11/20 02:20:47;;;;;;;22.37;11.67;;;-5.20;79.70;;;;;;8377643;28;20203;-79
2022/11/20 02:24:49;;;;;;;22.07;11.97;;;-5.30;99.90;;;;;;8354823;28;20193;-79
2022/11/20 02:28:50;;;;;;;23.97;11.03;;;-5.30;99.90;;;;;;8368953;28;20212;-79
2022/11/20 02:32:51;;;;;;;22.93;11.33;;;-5.30;1.00;;;;;;8377195;28;20212;-80
2022/11/20 02:36:53;;;;;;;22.87;11.27;;;-5.40;1.00;;;;;;8372077;28;20194;-79
2022/11/20 02:40:54;;;;;;;20.00;10.17;;;-5.40;1.00;;;;;;8377517;28;20189;-81
2022/11/20 02:44:54;;;;;;;22.90;11.37;;;-5.40;99.90;;;;;;8373424;28;20181;-80
2022/11/20 02:48:55;;;;;;;22.87;13.03;;;-5.30;1.00;;;;;;8366762;28;20178;-79
2022/11/20 02:52:56;;;;;;;22.90;12.43;;;-5.30;99.90;;;;;;8372737;28;20213;-80
2022/11/20 02:56:57;;;;;;;21.33;11.40;;;-5.20;99.90;;;;;;8370822;28;20193;-79
2022/11/20 03:00:58;;;;;;;24.80;12.73;;;-5.10;99.90;;;;;;8367838;28;20189;-80
2022/11/20 03:04:58;;;;;;;25.17;11.63;;;-5.10;99.90;;;;;;8374308;28;20204;-80
2022/11/20 03:08:59;;;;;;;22.83;11.63;;;-5.10;99.90;;;;;;8370551;28;20182;-81
2022/11/20 03:13:00;;;;;;;24.23;13.30;;;-5.10;1.00;;;;;;8372981;28;20205;-80
2022/11/20 03:17:01;;;;;;;24.17;11.97;;;-5.10;1.00;;;;;;8371855;28;20188;-80
2022/11/20 03:21:01;;;;;;;23.53;12.40;;;-5.10;1.00;;;;;;8371970;28;20234;-80
2022/11/20 03:25:03;;;;;;;22.83;11.87;;;-5.10;1.00;;;;;;8370196;28;20177;-80
2022/11/20 03:29:05;;;;;;;20.97;11.50;;;-5.10;99.90;;;;;;8367591;28;20197;-80
2022/11/20 03:33:05;;;;;;;20.40;11.97;;;-5.10;99.90;;;;;;8373239;28;20207;-79
2022/11/20 03:37:06;;;;;;;25.30;12.20;;;-5.20;1.00;;;;;;8368335;28;20182;-79
2022/11/20 03:41:14;;;;;;;23.03;12.00;;;-5.20;1.00;;;;;;8368021;28;20187;-78
2022/11/20 03:45:17;;;;;;;25.90;12.50;;;-5.20;1.00;;;;;;8385142;28;20223;-78
2022/11/20 03:49:17;;;;;;;25.33;12.80;;;-5.10;1.00;;;;;;8372213;28;20712;-78
2022/11/20 03:53:19;;;;;;;21.60;11.83;;;-5.10;99.90;;;;;;8373176;28;20197;-79
2022/11/20 03:57:20;;;;;;;23.10;11.10;;;-5.20;99.90;;;;;;8365996;28;20292;-79
2022/11/20 04:01:23;;;;;;;23.37;12.17;;;-5.20;99.90;;;;;;8371121;28;20193;-79
2022/11/20 04:05:24;;;;;;;21.83;11.47;;;-5.30;99.90;;;;;;8374092;28;20197;-80
2022/11/20 04:09:25;;;;;;;23.47;11.87;;;-5.30;99.90;;;;;;8373606;28;20284;-79
2022/11/20 04:13:26;;;;;;;25.13;13.40;;;-5.30;1.00;;;;;;8378390;28;20185;-79
2022/11/20 04:17:27;;;;;;;22.53;11.73;;;-5.40;99.90;;;;;;8369419;28;20280;-80
2022/11/20 04:21:28;;;;;;;23.57;12.47;;;-5.40;99.90;;;;;;8365327;28;20550;-80
2022/11/20 04:25:29;;;;;;;28.00;13.87;;;-5.50;99.90;;;;;;8366072;28;20201;-81
2022/11/20 04:29:30;;;;;;;25.57;13.70;;;-5.50;1.00;;;;;;8374012;28;20288;-80
2022/11/20 04:33:32;;;;;;;28.30;13.83;;;-5.50;99.90;;;;;;8367036;28;20184;-79
2022/11/20 04:37:33;;;;;;;24.30;13.10;;;-5.50;99.90;;;;;;8363068;28;20183;-80
2022/11/20 04:41:36;;;;;;;30.20;14.53;;;-5.50;99.90;;;;;;8377556;28;20200;-80
2022/11/20 04:45:37;;;;;;;21.87;11.93;;;-5.50;99.90;;;;;;8373733;28;20202;-80
2022/11/20 04:49:38;;;;;;;22.93;11.83;;;-5.50;99.90;;;;;;8365824;28;20191;-79
2022/11/20 04:53:38;;;;;;;22.23;12.60;;;-5.50;99.90;;;;;;8366179;28;20191;-78
2022/11/20 04:57:39;;;;;;;22.73;12.90;;;-5.50;99.90;;;;;;8365869;28;20469;-78
2022/11/20 05:01:40;;;;;;;22.47;12.10;;;-5.50;1.00;;;;;;8367226;28;20208;-78
2022/11/20 05:05:41;;;;;;;24.23;12.40;;;-5.40;99.90;;;;;;8365005;28;20186;-78
2022/11/20 05:09:42;;;;;;;21.67;11.67;;;-5.40;99.90;;;;;;8368758;28;20239;-78
2022/11/20 05:13:43;;;;;;;25.23;12.70;;;-5.40;99.90;;;;;;8370896;28;21324;-80
2022/11/20 05:17:48;;;;;;;24.13;12.13;;;-5.40;9.60;;;;;;8371538;28;20307;-79
2022/11/20 05:21:49;;;;;;;22.60;13.17;;;-5.40;1.00;;;;;;8371959;28;20184;-79
2022/11/20 05:25:55;;;;;;;22.73;12.53;;;-5.40;99.90;;;;;;8368585;28;20191;-79
2022/11/20 05:29:55;;;;;;;24.77;13.03;;;-5.40;99.90;;;;;;8364622;28;20299;-79
2022/11/20 05:33:57;;;;;;;23.20;12.23;;;-5.30;99.90;;;;;;8371052;28;20250;-80
2022/11/20 05:37:58;;;;;;;25.80;12.20;;;-5.20;60.70;;;;;;8376547;28;20279;-80
2022/11/20 05:46:20;;;;;;;22.03;12.10;;;-5.10;99.90;;;;;;8370378;28;20211;-79
2022/11/20 05:50:21;;;;;;;21.87;11.50;;;-5.10;1.00;;;;;;8378207;28;20211;-79
2022/11/20 05:54:21;;;;;;;25.47;12.50;;;-5.20;1.00;;;;;;8373976;28;20220;-79
2022/11/20 05:58:22;;;;;;;21.13;11.20;;;-5.30;1.00;;;;;;8368758;28;20207;-79
2022/11/20 06:02:23;;;;;;;20.70;11.27;;;-5.30;1.00;;;;;;8370574;28;20247;-78
2022/11/20 06:06:25;;;;;;;21.93;10.70;;;-5.40;1.00;;;;;;8375313;28;20189;-79
2022/11/20 06:10:26;;;;;;;22.57;11.47;;;-5.50;1.00;;;;;;8374860;28;20212;-81
2022/11/20 06:14:27;;;;;;;24.30;10.50;;;-5.50;1.00;;;;;;8371863;28;20284;-79
2022/11/20 06:18:29;;;;;;;18.90;10.13;;;-5.40;1.00;;;;;;8374027;28;20217;-80
2022/11/20 06:22:30;;;;;;;18.53;10.17;;;-5.30;1.00;;;;;;8374786;28;20189;-79
2022/11/20 06:26:31;;;;;;;18.90;10.30;;;-5.20;1.00;;;;;;8376005;28;20224;-79
2022/11/20 06:30:32;;;;;;;20.17;10.57;;;-5.20;99.90;;;;;;8366754;28;20228;-79
2022/11/20 06:34:32;;;;;;;19.87;10.30;;;-5.10;99.90;;;;;;8371242;28;20212;-78
2022/11/20 06:38:33;;;;;;;22.23;11.90;;;-5.00;99.90;;;;;;8371821;28;20283;-79
2022/11/20 06:42:34;;;;;;;24.80;12.93;;;-4.90;57.50;;;;;;8378342;28;20186;-79
2022/11/20 06:46:35;;;;;;;17.93;10.63;;;-4.80;1.00;;;;;;8377990;28;20307;-79
2022/11/20 06:50:39;;;;;;;23.53;9.57;;;-4.70;1.00;;;;;;8371024;28;20209;-79
2022/11/20 06:54:40;;;;;;;19.43;11.17;;;-4.70;99.90;;;;;;8375966;28;20205;-80
2022/11/20 06:58:40;;;;;;;21.87;10.57;;;-4.70;99.90;;;;;;8367860;28;20212;-79
2022/11/20 07:02:41;;;;;;;20.50;10.83;;;-4.70;99.90;;;;;;8371220;28;20196;-79
2022/11/20 07:06:42;;;;;;;19.50;9.90;;;-4.70;99.90;;;;;;8371813;28;20284;-79
2022/11/20 07:10:43;;;;;;;19.97;10.80;;;-4.70;99.90;;;;;;8371234;28;21668;-78
2022/11/20 07:14:44;;;;;;;21.67;10.43;;;-4.60;99.90;;;;;;8369140;28;20177;-79
2022/11/20 07:18:45;;;;;;;20.27;10.60;;;-4.50;99.90;;;;;;8377909;28;20284;-79
2022/11/20 07:22:45;;;;;;;18.77;9.50;;;-4.40;99.90;;;;;;8372128;28;20188;-79
2022/11/20 07:26:50;;;;;;;22.30;10.63;;;-4.30;99.90;;;;;;8364870;28;20196;-79
2022/11/20 07:30:52;;;;;;;18.67;10.17;;;-4.20;99.90;;;;;;8375027;28;20262;-80
2022/11/20 07:34:53;;;;;;;17.43;10.20;;;-4.00;71.60;;;;;;8365496;28;20190;-78
2022/11/20 07:38:54;;;;;;;16.33;9.53;;;-3.80;18.60;;;;;;8370365;28;20185;-78
2022/11/20 07:42:56;;;;;;;16.57;9.40;;;-3.60;1.00;;;;;;8366233;28;20227;-80
2022/11/20 07:46:56;;;;;;;15.80;9.70;;;-3.40;1.00;;;;;;8370410;28;20188;-80
2022/11/20 07:50:57;;;;;;;18.30;9.30;;;-3.20;1.00;;;;;;8371303;28;20240;-79
2022/11/20 07:54:58;;;;;;;14.50;8.63;;;-3.00;1.00;;;;;;8368697;28;20173;-79
2022/11/20 07:58:59;;;;;;;17.13;9.27;;;-2.80;1.00;;;;;;8371374;28;20224;-80
2022/11/20 08:03:04;;;;;;;16.80;9.10;;;-2.60;99.90;;;;;;8373517;28;20493;-79
2022/11/20 08:07:04;;;;;;;17.90;9.53;;;-2.40;99.90;;;;;;8364542;28;20166;-80
2022/11/20 08:15:25;;;;;;;16.27;9.03;;;-2.10;99.90;;;;;;8366666;28;20260;-79
2022/11/20 08:19:26;;;;;;;17.23;9.40;;;-2.00;99.90;;;;;;8364433;28;20178;-78
2022/11/20 08:23:27;;;;;;;15.17;9.20;;;-1.80;99.90;;;;;;8371329;28;20182;-77
2022/11/20 08:27:28;;;;;;;16.00;9.23;;;-1.70;99.90;;;;;;8373297;28;20203;-78
2022/11/20 08:31:28;;;;;;;14.20;8.93;;;-1.60;99.90;;;;;;8363886;28;20206;-78
2022/11/20 08:35:35;;;;;;;15.73;9.63;;;-1.40;99.90;;;;;;8369808;28;20267;-80
2022/11/20 08:39:36;;;;;;;17.17;10.40;;;-1.30;99.90;;;;;;8369366;28;20215;-79
2022/11/20 08:43:37;;;;;;;16.10;10.73;;;-1.20;99.90;;;;;;8373242;28;20192;-78
2022/11/20 08:47:38;;;;;;;19.10;10.53;;;-1.20;99.90;;;;;;8365822;28;20184;-78
2022/11/20 08:51:39;;;;;;;15.03;10.17;;;-1.10;99.90;;;;;;8369039;28;20263;-79
2022/11/20 08:55:40;;;;;;;18.50;10.13;;;-0.90;99.90;;;;;;8361309;28;20186;-78
2022/11/20 08:59:40;;;;;;;17.83;9.60;;;-0.70;99.90;;;;;;8360008;28;20244;-78
2022/11/20 09:03:41;;;;;;;16.93;9.87;;;-0.60;99.90;;;;;;8369905;28;20593;-78
2022/11/20 09:07:42;;;;;;;14.23;10.13;;;-0.50;99.90;;;;;;8365470;28;20191;-79
2022/11/20 09:11:43;;;;;;;17.27;10.30;;;-0.40;99.90;;;;;;8376969;28;20403;-78
2022/11/20 09:15:44;;;;;;;15.67;10.07;;;-0.30;99.90;;;;;;8375730;28;20189;-79
2022/11/20 09:19:45;;;;;;;16.03;9.87;;;-0.20;99.90;;;;;;8377149;28;20169;-79
2022/11/20 09:23:46;;;;;;;16.17;10.20;;;-0.10;99.90;;;;;;8376846;28;20176;-80
2022/11/20 09:27:47;;;;;;;18.43;10.60;;;0.00;99.90;;;;;;8370376;28;20239;-79
2022/11/20 09:31:48;;;;;;;17.70;10.57;;;0.10;99.90;;;;;;8374113;28;20241;-79
2022/11/20 09:35:49;;;;;;;19.97;10.93;;;0.20;99.90;;;;;;8373672;28;20174;-81
2022/11/20 09:39:50;;;;;;;15.30;10.13;;;0.20;99.90;;;;;;8373909;28;20174;-77
2022/11/20 09:44:32;;;;;;;13.90;9.20;;;0.30;99.90;;;;;;8379146;28;20213;-77
2022/11/20 09:48:54;;;;;;;14.13;9.13;;;0.40;99.90;;;;;;8365480;28;20189;-78
2022/11/20 09:53:13;;;;;;;18.97;10.47;;;0.60;99.90;;;;;;8373062;28;20197;-77
2022/11/20 09:57:37;;;;;;;15.17;9.90;;;0.80;99.90;;;;;;8378625;28;20285;-78
2022/11/20 10:01:40;;;;;;;16.70;9.43;;;0.90;99.90;;;;;;8372891;28;20272;-79
2022/11/20 10:05:44;;;;;;;15.97;10.23;;;1.00;99.90;;;;;;8372524;28;20209;-79
2022/11/20 10:09:52;;;;;;;14.20;9.87;;;1.20;99.90;;;;;;8375047;28;20182;-78
2022/11/20 10:14:21;;;;;;;16.13;10.83;;;1.30;95.10;;;;;;8371933;28;20185;-79
2022/11/20 10:18:31;;;;;;;18.43;9.67;;;1.40;99.70;;;;;;8376264;28;20174;-79
2022/11/20 10:23:07;;;;;;;14.13;9.90;;;1.40;99.80;;;;;;8376329;28;20193;-79
2022/11/20 10:27:13;;;;;;;15.93;10.50;;;1.40;99.90;;;;;;8356682;28;20206;-78
2022/11/20 10:31:30;;;;;;;15.37;10.07;;;1.50;99.90;;;;;;8373092;28;20206;-79
2022/11/20 10:35:42;;;;;;;16.87;10.67;;;1.50;99.90;;;;;;8380893;28;20551;-79
2022/11/20 10:40:10;;;;;;;16.17;10.57;;;1.50;99.90;;;;;;8380959;28;20199;-78
2022/11/20 10:48:56;;;;;;;15.33;9.47;;;1.50;99.90;;;;;;8379793;28;20220;-78
2022/11/20 10:53:34;;;;;;;16.47;11.00;;;1.50;99.90;;;;;;8378807;28;20216;-79
2022/11/20 10:58:06;;;;;;;16.97;9.73;;;1.50;99.90;;;;;;8370473;28;20240;-78
2022/11/20 11:02:23;;;;;;;17.13;9.67;;;1.70;99.90;;;;;;8368790;28;20181;-78
2022/11/20 11:06:43;;;;;;;16.87;9.87;;;1.80;96.00;;;;;;8373341;28;20259;-79
2022/11/20 11:11:11;;;;;;;14.17;9.23;;;1.90;91.50;;;;;;8373480;28;20204;-79
2022/11/20 11:15:25;;;;;;;14.43;9.57;;;1.90;91.70;;;;;;8376092;28;20178;-78
2022/11/20 11:19:29;;;;;;;14.33;8.93;;;2.00;86.20;;;;;;8387817;28;20190;-79
2022/11/20 11:23:35;;;;;;;15.30;9.80;;;2.00;92.90;;;;;;8381654;28;20210;-79
2022/11/20 11:27:49;;;;;;;14.80;9.57;;;2.10;94.70;;;;;;8376785;28;20193;-78
2022/11/20 11:31:50;;;;;;;16.20;9.83;;;2.10;93.30;;;;;;8374707;28;20213;-77
2022/11/20 11:36:22;;;;;;;14.70;9.57;;;2.10;90.20;;;;;;8375023;28;20226;-79
2022/11/20 11:40:23;;;;;;;14.00;9.17;;;2.10;84.10;;;;;;8362946;28;20264;-78
2022/11/20 11:49:17;;;;;;;14.90;9.03;;;2.20;63.60;;;;;;8376208;28;20315;-78
2022/11/20 11:53:24;;;;;;;13.97;9.87;;;2.30;67.20;;;;;;8375457;28;20224;-77
2022/11/20 11:57:28;;;;;;;15.57;9.70;;;2.30;61.00;;;;;;8381874;28;20201;-77
2022/11/20 12:01:37;;;;;;;13.07;8.53;;;2.30;63.90;;;;;;8365721;28;20181;-78
2022/11/20 12:05:54;;;;;;;16.77;10.97;;;2.30;63.50;;;;;;8370096;28;20182;-78
2022/11/20 12:09:57;;;;;;;14.00;9.30;;;2.40;60.40;;;;;;8374992;28;20208;-77
2022/11/20 12:14:39;;;;;;;13.87;8.70;;;2.50;50.90;;;;;;8368718;28;20513;-78
2022/11/20 12:18:41;;;;;;;18.73;12.10;;;2.50;49.00;;;;;;8352146;28;20189;-78
2022/11/20 12:22:52;;;;;;;16.17;9.87;;;2.50;76.00;;;;;;8369546;28;20200;-77
2022/11/20 12:27:04;;;;;;;17.37;10.83;;;2.60;79.50;;;;;;8373283;28;20197;-76
2022/11/20 12:31:17;;;;;;;17.93;11.43;;;2.70;80.90;;;;;;8376058;28;20359;-78
2022/11/20 12:35:47;;;;;;;18.30;12.00;;;2.90;75.50;;;;;;8368808;28;20189;-77
2022/11/20 12:39:53;;;;;;;17.07;11.50;;;3.00;57.70;;;;;;8373168;28;20184;-79
2022/11/20 12:48:52;;;;;;;18.43;10.80;;;2.90;87.70;;;;;;8365754;28;20192;-77
2022/11/20 12:53:41;;;;;;;17.93;11.37;;;2.70;94.20;;;;;;8381517;28;20209;-79
2022/11/20 12:57:55;;;;;;;18.43;11.20;;;2.50;95.70;;;;;;8375297;28;20275;-78
2022/11/20 13:02:07;;;;;;;19.23;11.90;;;2.30;99.90;;;;;;8364724;28;20187;-78
2022/11/20 13:06:13;;;;;;;18.77;10.60;;;2.20;99.90;;;;;;8366694;28;20207;-77
2022/11/20 13:10:35;;;;;;;19.43;12.03;;;2.00;99.90;;;;;;8370494;28;20221;-78
2022/11/20 13:14:45;;;;;;;17.73;11.43;;;1.90;99.90;;;;;;8372996;28;20185;-78
2022/11/20 13:18:46;;;;;;;23.07;12.27;;;1.80;99.90;;;;;;8374160;28;20482;-78
2022/11/20 13:22:49;;;;;;;20.90;12.30;;;1.60;99.90;;;;;;8368008;28;20178;-78
2022/11/20 13:27:20;;;;;;;18.53;11.27;;;1.40;99.90;;;;;;8365781;28;20201;-79
2022/11/20 13:31:33;;;;;;;17.07;11.07;;;1.30;99.90;;;;;;8371674;28;20205;-78
2022/11/20 13:35:37;;;;;;;17.57;11.23;;;1.20;99.90;;;;;;8369647;28;20181;-79
2022/11/20 13:39:38;;;;;;;17.83;10.73;;;1.20;99.90;;;;;;8371063;28;20182;-78
2022/11/20 13:43:41;;;;;;;18.90;11.27;;;1.10;99.90;;;;;;8374859;28;20272;-76
2022/11/20 13:47:49;;;;;;;18.30;11.30;;;1.00;99.90;;;;;;8367452;28;20255;-76
2022/11/20 13:51:57;;;;;;;16.87;10.67;;;0.90;99.90;;;;;;8368273;28;20209;-77
2022/11/20 13:56:04;;;;;;;18.23;10.50;;;0.90;99.90;;;;;;8368543;28;20306;-77
2022/11/20 14:00:24;;;;;;;16.87;11.40;;;0.90;99.90;;;;;;8369036;28;20229;-77
2022/11/20 14:04:38;;;;;;;19.70;11.50;;;0.80;99.90;;;;;;8371755;28;20182;-77
2022/11/20 14:08:45;;;;;;;17.27;10.73;;;0.70;99.90;;;;;;8377746;28;20185;-77
2022/11/20 14:12:47;;;;;;;19.17;11.30;;;0.70;99.90;;;;;;8374865;28;20201;-76
2022/11/20 14:16:49;;;;;;;20.03;11.10;;;0.60;99.90;;;;;;8370832;28;20200;-77
2022/11/20 14:20:50;;;;;;;15.07;9.77;;;0.50;99.90;;;;;;8374864;28;20268;-76
2022/11/20 14:25:27;;;;;;;17.87;9.73;;;0.50;99.90;;;;;;8371802;28;20260;-77
2022/11/20 14:29:36;;;;;;;16.23;9.47;;;0.40;99.90;;;;;;8358690;28;20237;-77
2022/11/20 14:33:37;;;;;;;12.43;8.37;;;0.20;99.90;;;;;;8369298;28;20201;-77
2022/11/20 14:37:40;;;;;;;14.50;8.70;;;0.10;99.90;;;;;;8371252;28;20197;-76
2022/11/20 14:41:53;;;;;;;15.37;8.40;;;-0.10;99.90;;;;;;8379421;28;20273;-77
2022/11/20 14:46:06;;;;;;;16.30;9.60;;;-0.30;99.90;;;;;;8367922;28;20217;-78
2022/11/20 14:50:23;;;;;;;16.63;9.53;;;-0.50;99.90;;;;;;8375315;28;20219;-77
2022/11/20 14:54:25;;;;;;;18.47;9.97;;;-0.60;99.90;;;;;;8372932;28;20188;-77
2022/11/20 14:58:33;;;;;;;17.93;9.87;;;-0.80;99.90;;;;;;8368594;28;20197;-76
2022/11/20 15:02:38;;;;;;;15.10;9.20;;;-1.00;99.90;;;;;;8368018;28;20189;-77
2022/11/20 15:06:50;;;;;;;15.13;9.67;;;-1.10;99.90;;;;;;8370446;28;20201;-77
2022/11/20 15:10:52;;;;;;;17.37;9.10;;;-1.30;1.00;;;;;;8371199;28;20203;-77
2022/11/20 15:14:53;;;;;;;17.27;9.80;;;-1.40;1.00;;;;;;8371198;28;20181;-77
2022/11/20 15:18:55;;;;;;;16.00;8.90;;;-1.60;1.00;;;;;;8367912;28;20176;-78
2022/11/20 15:22:55;;;;;;;17.90;9.53;;;-1.70;1.00;;;;;;8379043;28;20819;-77
2022/11/20 15:26:56;;;;;;;18.23;10.20;;;-1.70;12.60;;;;;;8371058;28;20200;-78
2022/11/20 15:30:58;;;;;;;18.23;10.10;;;-1.80;33.10;;;;;;8369115;28;20211;-78
2022/11/20 15:34:59;;;;;;;20.57;10.37;;;-1.80;95.50;;;;;;8372586;28;20183;-78
2022/11/20 15:38:59;;;;;;;19.77;9.77;;;-1.90;99.90;;;;;;8373321;28;20188;-78
2022/11/20 15:43:03;;;;;;;20.53;9.83;;;-2.00;99.90;;;;;;8375602;28;20188;-78
2022/11/20 15:47:05;;;;;;;15.77;9.40;;;-2.10;99.90;;;;;;8374709;28;20294;-79
2022/11/20 15:51:19;;;;;;;16.53;9.43;;;-2.20;99.90;;;;;;8372855;28;20206;-78
2022/11/20 15:55:20;;;;;;;15.60;10.07;;;-2.30;99.90;;;;;;8372568;28;20183;-78
2022/11/20 15:59:21;;;;;;;17.97;9.73;;;-2.30;99.90;;;;;;8366439;28;20202;-78
2022/11/20 16:03:22;;;;;;;21.00;10.80;;;-2.40;99.90;;;;;;8366687;28;20217;-79
2022/11/20 16:07:23;;;;;;;18.73;9.50;;;-2.50;99.90;;;;;;8368667;28;20238;-79
2022/11/20 16:11:24;;;;;;;17.87;10.07;;;-2.70;1.00;;;;;;8366094;28;20299;-78
2022/11/20 16:19:45;;;;;;;18.43;9.63;;;-3.00;1.00;;;;;;8371775;28;20185;-79
2022/11/20 16:23:46;;;;;;;16.20;8.57;;;-3.00;1.00;;;;;;8371651;28;20204;-79
2022/11/20 16:27:47;;;;;;;16.57;9.80;;;-3.20;1.00;;;;;;8371814;28;20228;-80
2022/11/20 16:31:48;;;;;;;21.40;10.43;;;-3.30;35.10;;;;;;8377089;28;20604;-80
2022/11/20 16:35:49;;;;;;;21.20;10.37;;;-3.30;99.90;;;;;;8373492;28;20260;-80
2022/11/20 16:39:49;;;;;;;22.67;10.73;;;-3.40;99.90;;;;;;8370938;28;20196;-80
2022/11/20 16:43:53;;;;;;;22.67;10.47;;;-3.50;99.90;;;;;;8371311;28;20208;-80
2022/11/20 16:47:53;;;;;;;20.93;9.97;;;-3.50;1.00;;;;;;8367964;28;20204;-80
2022/11/20 16:51:54;;;;;;;21.43;11.30;;;-3.60;1.00;;;;;;8374122;28;20288;-80
2022/11/20 16:55:55;;;;;;;23.57;12.23;;;-3.60;99.90;;;;;;8373959;28;20245;-80
2022/11/20 16:59:56;;;;;;;24.50;12.87;;;-3.50;1.00;;;;;;8369226;28;20346;-80
2022/11/20 17:04:04;;;;;;;26.77;14.33;;;-3.50;99.90;;;;;;8380460;28;20174;-80
2022/11/20 17:08:05;;;;;;;23.87;13.07;;;-3.50;1.00;;;;;;8367416;28;20184;-80
2022/11/20 17:12:06;;;;;;;24.27;12.57;;;-3.50;90.70;;;;;;8366468;28;20201;-81
2022/11/20 17:16:15;;;;;;;26.47;13.47;;;-3.50;1.00;;;;;;8364430;28;20178;-80
2022/11/20 17:20:16;;;;;;;27.27;14.30;;;-3.40;1.00;;;;;;8376595;28;20186;-80
2022/11/20 17:24:17;;;;;;;27.07;14.27;;;-3.40;99.90;;;;;;8363186;28;20181;-80
2022/11/20 17:28:22;;;;;;;26.40;13.30;;;-3.40;99.90;;;;;;8369739;28;20193;-79
2022/11/20 17:32:23;;;;;;;27.33;14.13;;;-3.40;99.90;;;;;;8349557;28;20379;-81
2022/11/20 17:36:25;;;;;;;26.77;13.83;;;-3.40;99.90;;;;;;8385935;28;20186;-80
2022/11/20 17:40:27;;;;;;;29.27;14.97;;;-3.40;1.00;;;;;;8389532;28;20192;-80
2022/11/20 17:49:07;;;;;;;29.07;14.93;;;-3.30;1.00;;;;;;8396076;28;20184;-81
2022/11/20 17:54:08;;;;;;;26.50;13.37;;;-3.30;59.00;;;;;;8404117;28;20229;-79
2022/11/20 17:58:25;;;;;;;29.60;13.37;;;-3.30;54.80;;;;;;8385557;28;20201;-80
2022/11/20 18:03:36;;;;;;;29.43;14.50;;;-3.30;99.90;;;;;;8415451;28;20177;-80
2022/11/20 18:08:07;;;;;;;28.67;13.67;;;-3.30;99.90;;;;;;8318670;28;20197;-80
2022/11/20 18:12:54;;;;;;;27.20;13.03;;;-3.40;99.90;;;;;;8391738;28;20218;-81
2022/11/20 18:16:58;;;;;;;28.30;13.57;;;-3.30;99.90;;;;;;8398326;28;20194;-79
2022/11/20 18:21:00;;;;;;;35.53;14.43;;;-3.30;99.90;;;;;;8374991;28;20174;-80
2022/11/20 18:25:18;;;;;;;28.80;14.47;;;-3.40;99.90;;;;;;8388690;28;20177;-81
2022/11/20 18:29:19;;;;;;;29.73;13.83;;;-3.40;99.90;;;;;;8393265;28;20216;-79
2022/11/20 18:33:20;;;;;;;31.63;13.87;;;-3.40;99.90;;;;;;8380695;28;20210;-79
2022/11/20 18:37:24;;;;;;;31.47;15.40;;;-3.40;99.90;;;;;;8372715;28;20180;-79
2022/11/20 18:47:00;;;;;;;23.53;13.03;;;-3.40;99.90;;;;;;8397874;28;20268;-80
2022/11/20 18:56:27;;;;;;;27.27;14.30;;;-3.40;99.90;;;;;;8384824;28;20296;-81
2022/11/20 19:05:52;;;;;;;24.00;13.07;;;-3.40;99.90;;;;;;8356815;28;20217;-80
2022/11/20 19:10:23;;;;;;;;;;;;;;;;;;;;;
2022/11/20 19:14:32;;;;;;;30.63;13.93;;;-3.10;99.90;;;;;;8365189;28;20191;-79
2022/11/20 19:18:33;;;;;;;30.93;13.50;;;-2.80;99.90;;;;;;8337264;28;20190;-80
2022/11/20 19:22:33;;;;;;;27.77;14.07;;;-2.60;99.90;;;;;;8364020;28;20198;-79
2022/11/20 19:26:35;;;;;;;26.70;13.93;;;-2.50;99.90;;;;;;8373947;28;20217;-79
2022/11/20 19:30:36;;;;;;;26.60;14.03;;;-2.40;99.90;;;;;;8375064;28;20213;-78
2022/11/20 19:34:37;;;;;;;22.90;13.03;;;-2.40;99.90;;;;;;8367856;28;20225;-80
2022/11/20 19:38:39;;;;;;;26.37;13.33;;;-2.30;99.90;;;;;;8367814;28;20203;-79
2022/11/20 19:42:40;;;;;;;24.83;12.17;;;-2.30;99.90;;;;;;8375748;28;20199;-79
2022/11/20 19:46:42;;;;;;;21.73;12.60;;;-2.20;99.90;;;;;;8367802;28;20272;-79
2022/11/20 19:50:46;;;;;;;22.07;11.87;;;-2.20;99.90;;;;;;8370169;28;20241;-79
2022/11/20 19:54:47;;;;;;;21.40;12.00;;;-2.10;99.90;;;;;;8373120;28;20215;-79
2022/11/20 19:58:48;;;;;;;21.03;11.50;;;-2.10;99.90;;;;;;8368804;28;20198;-78
2022/11/20 20:02:49;;;;;;;21.83;11.50;;;-2.10;99.90;;;;;;8369156;28;20193;-79
2022/11/20 20:06:50;;;;;;;21.97;10.87;;;-2.10;1.00;;;;;;8366258;28;20191;-79
2022/11/20 20:10:51;;;;;;;20.27;11.47;;;-2.20;99.90;;;;;;8370223;28;20283;-80
2022/11/20 20:14:51;;;;;;;21.87;11.17;;;-2.30;85.90;;;;;;8368542;28;20179;-80
2022/11/20 20:19:00;;;;;;;23.20;12.00;;;-2.40;1.00;;;;;;8367204;28;21062;-79
2022/11/20 20:23:03;;;;;;;26.93;12.90;;;-2.60;99.90;;;;;;8375416;28;20617;-79
2022/11/20 20:27:04;;;;;;;29.87;13.90;;;-2.80;99.90;;;;;;8372507;28;20272;-80
2022/11/20 20:31:10;;;;;;;27.17;14.00;;;-3.00;99.90;;;;;;8375928;28;20276;-80
2022/11/20 20:35:11;;;;;;;30.60;14.43;;;-3.10;99.90;;;;;;8370877;28;20259;-79
2022/11/20 20:39:13;;;;;;;31.63;15.33;;;-3.20;1.00;;;;;;8370024;28;20304;-79
2022/11/20 20:43:15;;;;;;;32.97;15.07;;;-3.30;99.90;;;;;;8370302;28;20271;-80
2022/11/20 20:47:16;;;;;;;34.47;15.97;;;-3.40;99.90;;;;;;8372499;28;20248;-80
2022/11/20 20:51:17;;;;;;;31.23;15.67;;;-3.50;1.00;;;;;;8370395;28;20248;-80
2022/11/20 20:55:18;;;;;;;31.80;15.70;;;-3.50;1.00;;;;;;8374283;28;20189;-80
2022/11/20 20:59:18;;;;;;;37.83;17.53;;;-3.60;29.90;;;;;;8372081;28;20194;-80
2022/11/20 21:03:20;;;;;;;31.03;16.53;;;-3.70;99.90;;;;;;8367700;28;20192;-80
2022/11/20 21:07:21;;;;;;;32.07;17.07;;;-3.80;99.90;;;;;;8368637;28;20193;-80
2022/11/20 21:11:22;;;;;;;32.87;16.37;;;-3.80;99.90;;;;;;8370295;28;20200;-80
2022/11/20 21:15:23;;;;;;;36.97;16.50;;;-4.00;99.90;;;;;;8373488;28;20243;-80
2022/11/20 21:19:24;;;;;;;39.07;17.53;;;-4.10;99.90;;;;;;8367698;28;20197;-81
2022/11/20 21:23:25;;;;;;;38.43;18.03;;;-4.10;99.90;;;;;;8370428;28;20196;-80
2022/11/20 21:27:26;;;;;;;37.87;16.17;;;-4.20;99.90;;;;;;8376393;28;20241;-80
2022/11/20 21:31:28;;;;;;;33.53;16.90;;;-4.20;99.90;;;;;;8373829;28;20275;-80
2022/11/20 21:35:32;;;;;;;32.57;15.53;;;-4.30;99.90;;;;;;8368285;28;20195;-79
2022/11/20 21:39:33;;;;;;;37.17;16.63;;;-4.40;99.90;;;;;;8367357;28;20174;-80
2022/11/20 21:43:34;;;;;;;38.30;17.50;;;-4.40;99.90;;;;;;8374575;28;20204;-79
2022/11/20 21:47:35;;;;;;;39.60;18.37;;;-4.40;99.90;;;;;;8366422;28;20195;-80
2022/11/20 21:51:36;;;;;;;38.77;17.70;;;-4.40;99.90;;;;;;8372277;28;20220;-80